עמוד ראשי
METAR-TAF:

METAR-TAF

שדות תעופה :

בטמן, טורקיה

קו רוחב: 37-52N, קו אורך: 041-10E, גובה: 540מטר

תצפית מזג אוויר נוכחית

הדו"ח נערך לפני 43דקות, בשעה 13:20 UTC
רוח 7קשר מכיוון דרום/דרום-מערב
טמפרטורת 40 צלסיוס
לחות 19%
לחץ 1001 hPa
ראות 10 קילומטר או יותר
ללא עננים שבסיסם נמוך מ 5000 רגל או קומולונימבוס

METAR: LTCJ 181320Z 21007KT CAVOK 40/12 Q1001 NOSIG RMK RWY20 22006KT 170V250 2AC100

זמן: 17:03 (14:03 UTC)

תחזית

הדו"ח נערך לפני 3 שעות ו 23דקות, בשעה 10:40 UTC
תחזית בתוקף מ 18 ב 12 UTC עד 19 ב 12 UTC
רוח 9קשר מכיוון מערב/דרום-מערב
ראות 10 קילומטר או יותר
ללא עננים שבסיסם נמוך מ 5000 רגל או קומולונימבוס
יעשה מ
18 ב 14 UTC עד 18 ב 16 UTC
מעט עננים בגובה 4000רגל
עננים פזורים בגובה 10000רגל
זמנית מ -
18 ב 17 UTC עד 18 ב 21 UTC
רוח 15קשר מכיוון צפון/צפון-מזרח עם משבים עד 25קשר

TAF: LTCJ 181040Z 1812/1912 24009KT CAVOK BECMG 1814/1816 FEW040 SCT100 TEMPO 1817/1821 03015G25KT

תצפיות ותחזיות מזג אוויר לגבי יותר מ- 4,000 שדות תעופה ברחבי העולם. דוחות METAR ו- TAF.

התחנות הזמינות מסומנות בנקודות צהובות ואדומות על גבי המפה.

העבר את העכבר לנקודה הצבעונית על מנת לראות את שם התחנה.

לאחר מכן, לחץ כדי לראות את תוכן ואת תחזיות מזג האוויר.

כדי לשנות את המפה: לחץ על הכפתורים הירוקים עם הפלוס השחור כדי להתקרב; על הכפתור הירוק עם המקף כדי להתרחק; או בחיצים הירוקים למפות סמוכות.


METAR-TAF: